sensor_id;sensor_type;location;lat;lon;timestamp;pressure;altitude;pressure_sealevel;temperature;humidity
64053;BME280;50299;49.524;8.536;2024-03-22T00:01:46;101232.91;;;6.59;60.64
64053;BME280;50299;49.524;8.536;2024-03-22T00:04:14;101232.69;;;6.51;61.99
64053;BME280;50299;49.524;8.536;2024-03-22T00:06:44;101237.63;;;6.54;62.90
64053;BME280;50299;49.524;8.536;2024-03-22T00:09:10;101232.38;;;6.57;65.22
64053;BME280;50299;49.524;8.536;2024-03-22T00:11:36;101222.22;;;6.58;65.17
64053;BME280;50299;49.524;8.536;2024-03-22T00:14:02;101228.28;;;6.55;62.25
64053;BME280;50299;49.524;8.536;2024-03-22T00:16:28;101231.06;;;6.50;62.57
64053;BME280;50299;49.524;8.536;2024-03-22T00:18:54;101227.22;;;6.51;60.59
64053;BME280;50299;49.524;8.536;2024-03-22T00:21:21;101218.16;;;6.50;63.41
64053;BME280;50299;49.524;8.536;2024-03-22T00:23:47;101210.44;;;6.52;64.39
64053;BME280;50299;49.524;8.536;2024-03-22T00:26:12;101210.69;;;6.56;65.84
64053;BME280;50299;49.524;8.536;2024-03-22T00:28:39;101203.81;;;6.58;65.84
64053;BME280;50299;49.524;8.536;2024-03-22T00:31:05;101216.16;;;6.61;65.26
64053;BME280;50299;49.524;8.536;2024-03-22T00:33:30;101199.97;;;6.59;64.41
64053;BME280;50299;49.524;8.536;2024-03-22T00:36:06;101196.66;;;6.57;65.10
64053;BME280;50299;49.524;8.536;2024-03-22T00:38:31;101199.13;;;6.59;66.31
64053;BME280;50299;49.524;8.536;2024-03-22T00:40:58;101194.16;;;6.61;66.47
64053;BME280;50299;49.524;8.536;2024-03-22T00:43:23;101184.59;;;6.58;65.83
64053;BME280;50299;49.524;8.536;2024-03-22T00:45:49;101198.59;;;6.57;65.94
64053;BME280;50299;49.524;8.536;2024-03-22T00:48:14;101179.63;;;6.60;66.32
64053;BME280;50299;49.524;8.536;2024-03-22T00:50:40;101179.63;;;6.60;65.33
64053;BME280;50299;49.524;8.536;2024-03-22T00:53:05;101177.44;;;6.57;65.28
64053;BME280;50299;49.524;8.536;2024-03-22T00:55:33;101171.13;;;6.57;65.69
64053;BME280;50299;49.524;8.536;2024-03-22T00:57:59;101172.78;;;6.53;63.25
64053;BME280;50299;49.524;8.536;2024-03-22T01:00:25;101170.84;;;6.53;64.68
64053;BME280;50299;49.524;8.536;2024-03-22T01:02:51;101154.16;;;6.50;65.39
64053;BME280;50299;49.524;8.536;2024-03-22T01:05:17;101155.03;;;6.40;62.55
64053;BME280;50299;49.524;8.536;2024-03-22T01:07:43;101150.97;;;6.27;62.22
64053;BME280;50299;49.524;8.536;2024-03-22T01:10:09;101157.06;;;6.14;61.82
64053;BME280;50299;49.524;8.536;2024-03-22T01:12:35;101159.88;;;5.99;61.55
64053;BME280;50299;49.524;8.536;2024-03-22T01:15:00;101158.84;;;5.84;63.19
64053;BME280;50299;49.524;8.536;2024-03-22T01:17:26;101156.66;;;5.76;64.05
64053;BME280;50299;49.524;8.536;2024-03-22T01:19:51;101160.78;;;5.74;63.17
64053;BME280;50299;49.524;8.536;2024-03-22T01:22:17;101148.19;;;5.68;64.03
64053;BME280;50299;49.524;8.536;2024-03-22T01:24:44;101146.53;;;5.66;65.59
64053;BME280;50299;49.524;8.536;2024-03-22T01:27:09;101147.63;;;5.65;66.28
64053;BME280;50299;49.524;8.536;2024-03-22T01:29:35;101141.63;;;5.58;67.19
64053;BME280;50299;49.524;8.536;2024-03-22T01:32:02;101142.19;;;5.50;66.10
64053;BME280;50299;49.524;8.536;2024-03-22T01:34:30;101132.88;;;5.51;65.68
64053;BME280;50299;49.524;8.536;2024-03-22T01:36:56;101134.50;;;5.57;66.02
64053;BME280;50299;49.524;8.536;2024-03-22T01:39:22;101130.38;;;5.60;65.50
64053;BME280;50299;49.524;8.536;2024-03-22T01:41:50;101127.91;;;5.63;66.46
64053;BME280;50299;49.524;8.536;2024-03-22T01:44:17;101130.34;;;5.65;65.71
64053;BME280;50299;49.524;8.536;2024-03-22T01:46:44;101138.59;;;5.65;66.25
64053;BME280;50299;49.524;8.536;2024-03-22T01:49:11;101138.31;;;5.66;66.17
64053;BME280;50299;49.524;8.536;2024-03-22T01:51:39;101135.28;;;5.68;64.54
64053;BME280;50299;49.524;8.536;2024-03-22T01:54:08;101130.91;;;5.72;66.88
64053;BME280;50299;49.524;8.536;2024-03-22T01:56:36;101126.22;;;5.73;64.29
64053;BME280;50299;49.524;8.536;2024-03-22T01:59:03;101127.03;;;5.73;65.13
64053;BME280;50299;49.524;8.536;2024-03-22T02:01:33;101123.75;;;5.71;65.72
64053;BME280;50299;49.524;8.536;2024-03-22T02:03:59;101125.13;;;5.74;66.68
64053;BME280;50299;49.524;8.536;2024-03-22T02:06:25;101125.09;;;5.79;66.99
64053;BME280;50299;49.524;8.536;2024-03-22T02:08:51;101126.75;;;5.80;65.44
64053;BME280;50299;49.524;8.536;2024-03-22T02:11:16;101125.91;;;5.79;64.84
64053;BME280;50299;49.524;8.536;2024-03-22T02:13:42;101115.22;;;5.78;64.17
64053;BME280;50299;49.524;8.536;2024-03-22T02:16:10;101125.13;;;5.74;65.94
64053;BME280;50299;49.524;8.536;2024-03-22T02:18:36;101111.94;;;5.76;65.79
64053;BME280;50299;49.524;8.536;2024-03-22T02:21:02;101119.34;;;5.80;67.76
64053;BME280;50299;49.524;8.536;2024-03-22T02:23:34;101111.94;;;5.76;62.40
64053;BME280;50299;49.524;8.536;2024-03-22T02:26:01;101121.84;;;5.66;63.10
64053;BME280;50299;49.524;8.536;2024-03-22T02:28:26;101108.72;;;5.53;66.00
64053;BME280;50299;49.524;8.536;2024-03-22T02:30:52;101109.81;;;5.57;66.51
64053;BME280;50299;49.524;8.536;2024-03-22T02:33:17;101110.34;;;5.54;63.59
64053;BME280;50299;49.524;8.536;2024-03-22T02:35:46;101114.50;;;5.52;64.91
64053;BME280;50299;49.524;8.536;2024-03-22T02:38:11;101110.94;;;5.51;66.24
64053;BME280;50299;49.524;8.536;2024-03-22T02:40:37;101107.13;;;5.47;64.72
64053;BME280;50299;49.524;8.536;2024-03-22T02:43:03;101104.09;;;5.44;65.06
64053;BME280;50299;49.524;8.536;2024-03-22T02:45:30;101103.81;;;5.45;67.02
64053;BME280;50299;49.524;8.536;2024-03-22T02:47:56;101104.91;;;5.44;67.35
64053;BME280;50299;49.524;8.536;2024-03-22T02:50:21;101100.25;;;5.45;65.96
64053;BME280;50299;49.524;8.536;2024-03-22T02:52:48;101091.47;;;5.42;66.37
64053;BME280;50299;49.524;8.536;2024-03-22T02:55:14;101083.53;;;5.41;67.12
64053;BME280;50299;49.524;8.536;2024-03-22T02:57:39;101079.97;;;5.40;67.25
64053;BME280;50299;49.524;8.536;2024-03-22T03:00:36;101077.19;;;5.51;68.64
64053;BME280;50299;49.524;8.536;2024-03-22T03:03:06;101079.91;;;5.61;68.99
64053;BME280;50299;49.524;8.536;2024-03-22T03:05:32;101065.06;;;5.67;69.08
64053;BME280;50299;49.524;8.536;2024-03-22T03:07:58;101074.91;;;5.73;66.96
64053;BME280;50299;49.524;8.536;2024-03-22T03:10:23;101068.63;;;5.73;64.14
64053;BME280;50299;49.524;8.536;2024-03-22T03:12:49;101066.69;;;5.73;66.78
64053;BME280;50299;49.524;8.536;2024-03-22T03:15:15;101066.44;;;5.70;65.44
64053;BME280;50299;49.524;8.536;2024-03-22T03:17:41;101065.09;;;5.62;64.87
64053;BME280;50299;49.524;8.536;2024-03-22T03:20:06;101066.78;;;5.53;64.27
64053;BME280;50299;49.524;8.536;2024-03-22T03:22:34;101068.47;;;5.44;64.69
64053;BME280;50299;49.524;8.536;2024-03-22T03:25:00;101071.78;;;5.35;65.04
64053;BME280;50299;49.524;8.536;2024-03-22T03:27:25;101067.94;;;5.31;65.75
64053;BME280;50299;49.524;8.536;2024-03-22T03:29:51;101058.09;;;5.30;66.39
64053;BME280;50299;49.524;8.536;2024-03-22T03:32:19;101058.34;;;5.29;66.36
64053;BME280;50299;49.524;8.536;2024-03-22T03:34:45;101069.84;;;5.26;64.36
64053;BME280;50299;49.524;8.536;2024-03-22T03:37:11;101061.66;;;5.21;65.58
64053;BME280;50299;49.524;8.536;2024-03-22T03:39:36;101061.13;;;5.19;66.13
64053;BME280;50299;49.524;8.536;2024-03-22T03:42:02;101064.13;;;5.17;66.11
64053;BME280;50299;49.524;8.536;2024-03-22T03:44:27;101057.56;;;5.13;66.61
64053;BME280;50299;49.524;8.536;2024-03-22T03:46:53;101053.47;;;5.10;67.22
64053;BME280;50299;49.524;8.536;2024-03-22T03:49:18;101051.28;;;5.07;67.68
64053;BME280;50299;49.524;8.536;2024-03-22T03:51:44;101048.81;;;5.06;68.24
64053;BME280;50299;49.524;8.536;2024-03-22T03:54:10;101052.94;;;5.03;67.66
64053;BME280;50299;49.524;8.536;2024-03-22T03:56:35;101047.47;;;4.98;67.51
64053;BME280;50299;49.524;8.536;2024-03-22T03:59:01;101041.72;;;4.95;67.02
64053;BME280;50299;49.524;8.536;2024-03-22T04:01:26;101045.56;;;4.94;67.65
64053;BME280;50299;49.524;8.536;2024-03-22T04:03:51;101042.56;;;4.90;68.28
64053;BME280;50299;49.524;8.536;2024-03-22T04:06:17;101029.69;;;4.85;67.62
64053;BME280;50299;49.524;8.536;2024-03-22T04:08:43;101035.16;;;4.90;68.18
64053;BME280;50299;49.524;8.536;2024-03-22T04:11:09;101034.88;;;4.92;67.55
64053;BME280;50299;49.524;8.536;2024-03-22T04:13:35;101037.59;;;4.92;67.88
64053;BME280;50299;49.524;8.536;2024-03-22T04:16:01;101034.59;;;4.88;68.13
64053;BME280;50299;49.524;8.536;2024-03-22T04:18:26;101034.59;;;4.83;68.38
64053;BME280;50299;49.524;8.536;2024-03-22T04:20:59;101026.66;;;4.87;68.32
64053;BME280;50299;49.524;8.536;2024-03-22T04:23:25;101033.50;;;4.89;68.10
64053;BME280;50299;49.524;8.536;2024-03-22T04:25:58;101032.38;;;4.96;67.39
64053;BME280;50299;49.524;8.536;2024-03-22T04:28:25;101037.59;;;5.02;67.87
64053;BME280;50299;49.524;8.536;2024-03-22T04:31:02;101031.25;;;5.12;68.25
64053;BME280;50299;49.524;8.536;2024-03-22T04:33:29;101037.81;;;5.21;68.35
64053;BME280;50299;49.524;8.536;2024-03-22T04:35:56;101025.19;;;5.30;68.55
64053;BME280;50299;49.524;8.536;2024-03-22T04:38:22;101028.50;;;5.22;67.44
64053;BME280;50299;49.524;8.536;2024-03-22T04:40:48;101025.81;;;5.07;67.66
64053;BME280;50299;49.524;8.536;2024-03-22T04:43:14;101021.41;;;5.01;68.02
64053;BME280;50299;49.524;8.536;2024-03-22T04:45:42;101016.47;;;5.18;68.10
64053;BME280;50299;49.524;8.536;2024-03-22T04:48:08;101023.00;;;5.17;67.92
64053;BME280;50299;49.524;8.536;2024-03-22T04:50:34;101026.56;;;5.28;67.65
64053;BME280;50299;49.524;8.536;2024-03-22T04:53:01;101026.00;;;5.26;67.97
64053;BME280;50299;49.524;8.536;2024-03-22T04:55:29;101030.59;;;5.46;67.93
64053;BME280;50299;49.524;8.536;2024-03-22T04:57:54;101025.66;;;5.42;67.30
64053;BME280;50299;49.524;8.536;2024-03-22T05:00:20;101023.00;;;5.27;65.92
64053;BME280;50299;49.524;8.536;2024-03-22T05:02:45;101025.44;;;5.39;67.19
64053;BME280;50299;49.524;8.536;2024-03-22T05:05:11;101022.97;;;5.32;67.02
64053;BME280;50299;49.524;8.536;2024-03-22T05:07:37;101021.59;;;5.30;66.74
64053;BME280;50299;49.524;8.536;2024-03-22T05:10:03;101027.66;;;5.27;66.66
64053;BME280;50299;49.524;8.536;2024-03-22T05:12:29;101019.69;;;5.25;67.15
64053;BME280;50299;49.524;8.536;2024-03-22T05:14:55;101016.94;;;5.35;66.51
64053;BME280;50299;49.524;8.536;2024-03-22T05:17:20;101016.91;;;5.40;66.59
64053;BME280;50299;49.524;8.536;2024-03-22T05:19:46;101013.31;;;5.45;66.18
64053;BME280;50299;49.524;8.536;2024-03-22T05:22:12;101020.69;;;5.50;65.86
64053;BME280;50299;49.524;8.536;2024-03-22T05:24:38;101018.50;;;5.52;66.43
64053;BME280;50299;49.524;8.536;2024-03-22T05:27:03;101030.31;;;5.52;66.18
64053;BME280;50299;49.524;8.536;2024-03-22T05:29:29;101026.75;;;5.52;66.46
64053;BME280;50299;49.524;8.536;2024-03-22T05:31:54;101019.91;;;5.44;66.22
64053;BME280;50299;49.524;8.536;2024-03-22T05:34:20;101015.31;;;5.34;66.51
64053;BME280;50299;49.524;8.536;2024-03-22T05:36:46;101012.03;;;5.27;66.04
64053;BME280;50299;49.524;8.536;2024-03-22T05:39:11;101012.56;;;5.29;65.66
64053;BME280;50299;49.524;8.536;2024-03-22T05:41:38;101013.97;;;5.27;66.47
64053;BME280;50299;49.524;8.536;2024-03-22T05:44:04;101015.31;;;5.24;66.43
64053;BME280;50299;49.524;8.536;2024-03-22T05:46:30;101016.44;;;5.23;66.99
64053;BME280;50299;49.524;8.536;2024-03-22T05:48:57;101011.22;;;5.16;66.78
64053;BME280;50299;49.524;8.536;2024-03-22T05:51:24;101011.22;;;5.22;67.33
64053;BME280;50299;49.524;8.536;2024-03-22T05:53:50;101013.13;;;5.21;67.27
64053;BME280;50299;49.524;8.536;2024-03-22T05:56:15;101013.97;;;5.27;67.54
64053;BME280;50299;49.524;8.536;2024-03-22T05:58:41;101011.47;;;5.35;67.79
64053;BME280;50299;49.524;8.536;2024-03-22T06:01:07;101008.09;;;5.49;68.27
64053;BME280;50299;49.524;8.536;2024-03-22T06:03:32;101000.41;;;5.51;67.95
64053;BME280;50299;49.524;8.536;2024-03-22T06:05:59;101001.69;;;5.69;68.11
64053;BME280;50299;49.524;8.536;2024-03-22T06:08:28;101005.78;;;5.71;68.16
64053;BME280;50299;49.524;8.536;2024-03-22T06:10:54;101003.03;;;5.76;68.15
64053;BME280;50299;49.524;8.536;2024-03-22T06:13:21;101004.06;;;5.85;67.63
64053;BME280;50299;49.524;8.536;2024-03-22T06:15:50;101005.97;;;5.90;68.08
64053;BME280;50299;49.524;8.536;2024-03-22T06:18:16;101000.50;;;5.85;68.49
64053;BME280;50299;49.524;8.536;2024-03-22T06:20:42;100998.75;;;5.99;68.71
64053;BME280;50299;49.524;8.536;2024-03-22T06:23:09;100995.34;;;6.12;68.51
64053;BME280;50299;49.524;8.536;2024-03-22T06:25:34;100996.97;;;6.24;68.25
64053;BME280;50299;49.524;8.536;2024-03-22T06:28:00;100985.91;;;6.34;68.33
64053;BME280;50299;49.524;8.536;2024-03-22T06:30:26;100980.94;;;6.65;68.46
64053;BME280;50299;49.524;8.536;2024-03-22T06:32:53;100982.81;;;6.70;68.40
64053;BME280;50299;49.524;8.536;2024-03-22T06:35:20;100988.88;;;6.96;67.31
64053;BME280;50299;49.524;8.536;2024-03-22T06:37:46;100995.25;;;7.15;66.60
64053;BME280;50299;49.524;8.536;2024-03-22T06:40:11;100985.19;;;7.29;65.88
64053;BME280;50299;49.524;8.536;2024-03-22T06:42:37;100982.09;;;7.36;65.43
64053;BME280;50299;49.524;8.536;2024-03-22T06:45:03;100971.84;;;7.42;66.85
64053;BME280;50299;49.524;8.536;2024-03-22T06:47:28;100980.59;;;7.49;65.25
64053;BME280;50299;49.524;8.536;2024-03-22T06:49:54;100979.97;;;7.52;66.10
64053;BME280;50299;49.524;8.536;2024-03-22T06:52:20;100978.22;;;7.80;66.49
64053;BME280;50299;49.524;8.536;2024-03-22T06:54:46;100967.78;;;8.14;67.32
64053;BME280;50299;49.524;8.536;2024-03-22T06:57:12;100964.53;;;8.26;65.18
64053;BME280;50299;49.524;8.536;2024-03-22T06:59:37;100965.88;;;8.29;65.12
64053;BME280;50299;49.524;8.536;2024-03-22T07:02:03;100963.09;;;8.15;64.88
64053;BME280;50299;49.524;8.536;2024-03-22T07:04:29;100954.44;;;8.22;65.10
64053;BME280;50299;49.524;8.536;2024-03-22T07:06:54;100954.41;;;8.54;63.66
64053;BME280;50299;49.524;8.536;2024-03-22T07:09:20;100948.88;;;8.87;62.96
64053;BME280;50299;49.524;8.536;2024-03-22T07:11:46;100950.41;;;9.07;61.83
64053;BME280;50299;49.524;8.536;2024-03-22T07:14:11;100954.81;;;9.22;62.37
64053;BME280;50299;49.524;8.536;2024-03-22T07:16:37;100957.53;;;9.35;61.43
64053;BME280;50299;49.524;8.536;2024-03-22T07:19:06;100956.38;;;9.64;61.07
64053;BME280;50299;49.524;8.536;2024-03-22T07:21:31;100957.94;;;10.15;61.22
64053;BME280;50299;49.524;8.536;2024-03-22T07:23:57;100955.91;;;10.52;58.97
64053;BME280;50299;49.524;8.536;2024-03-22T07:26:23;100958.47;;;10.71;59.42
64053;BME280;50299;49.524;8.536;2024-03-22T07:28:48;100952.84;;;11.24;55.67
64053;BME280;50299;49.524;8.536;2024-03-22T07:31:14;100945.59;;;11.72;54.69
64053;BME280;50299;49.524;8.536;2024-03-22T07:33:40;100944.72;;;11.28;53.21
64053;BME280;50299;49.524;8.536;2024-03-22T07:36:06;100951.50;;;11.13;53.86
64053;BME280;50299;49.524;8.536;2024-03-22T07:38:32;100952.03;;;10.84;54.17
64053;BME280;50299;49.524;8.536;2024-03-22T07:40:58;100941.91;;;11.10;57.46
64053;BME280;50299;49.524;8.536;2024-03-22T07:43:23;100951.25;;;11.41;56.21
64053;BME280;50299;49.524;8.536;2024-03-22T07:45:49;100943.03;;;11.18;53.41
64053;BME280;50299;49.524;8.536;2024-03-22T07:48:15;100935.94;;;11.43;55.50
64053;BME280;50299;49.524;8.536;2024-03-22T07:50:41;100943.13;;;11.62;55.96
64053;BME280;50299;49.524;8.536;2024-03-22T07:53:06;100932.41;;;11.60;52.84
64053;BME280;50299;49.524;8.536;2024-03-22T07:55:32;100947.13;;;11.21;53.23
64053;BME280;50299;49.524;8.536;2024-03-22T07:57:58;100940.13;;;11.15;52.90
64053;BME280;50299;49.524;8.536;2024-03-22T08:00:24;100936.31;;;11.02;55.62
64053;BME280;50299;49.524;8.536;2024-03-22T08:02:53;100933.44;;;11.07;53.43
64053;BME280;50299;49.524;8.536;2024-03-22T08:05:19;100935.00;;;10.91;55.70
64053;BME280;50299;49.524;8.536;2024-03-22T08:07:45;100930.13;;;10.96;54.28
64053;BME280;50299;49.524;8.536;2024-03-22T08:10:11;100926.00;;;10.85;55.02
64053;BME280;50299;49.524;8.536;2024-03-22T08:12:36;100926.38;;;10.61;55.14
64053;BME280;50299;49.524;8.536;2024-03-22T08:15:02;100927.69;;;10.64;56.27
64053;BME280;50299;49.524;8.536;2024-03-22T08:17:28;100934.28;;;10.76;56.76
64053;BME280;50299;49.524;8.536;2024-03-22T08:19:54;100929.47;;;10.91;56.68
64053;BME280;50299;49.524;8.536;2024-03-22T08:22:19;100921.34;;;10.94;57.13
64053;BME280;50299;49.524;8.536;2024-03-22T08:24:45;100925.44;;;11.05;56.94
64053;BME280;50299;49.524;8.536;2024-03-22T08:27:11;100916.03;;;11.15;56.52
64053;BME280;50299;49.524;8.536;2024-03-22T08:29:38;100917.94;;;11.06;53.45
64053;BME280;50299;49.524;8.536;2024-03-22T08:32:04;100909.78;;;10.92;55.17
64053;BME280;50299;49.524;8.536;2024-03-22T08:34:33;100912.38;;;10.97;56.10
64053;BME280;50299;49.524;8.536;2024-03-22T08:36:59;100902.81;;;10.95;55.28
64053;BME280;50299;49.524;8.536;2024-03-22T08:39:24;100904.38;;;10.78;55.85
64053;BME280;50299;49.524;8.536;2024-03-22T08:41:51;100906.75;;;10.71;56.63
64053;BME280;50299;49.524;8.536;2024-03-22T08:44:17;100902.81;;;10.64;55.88
64053;BME280;50299;49.524;8.536;2024-03-22T08:46:42;100893.34;;;10.56;55.89
64053;BME280;50299;49.524;8.536;2024-03-22T08:49:08;100891.03;;;10.49;56.29
64053;BME280;50299;49.524;8.536;2024-03-22T08:51:33;100894.38;;;10.38;57.36
64053;BME280;50299;49.524;8.536;2024-03-22T08:53:59;100889.16;;;10.36;57.22
64053;BME280;50299;49.524;8.536;2024-03-22T08:56:26;100880.66;;;10.24;56.63
64053;BME280;50299;49.524;8.536;2024-03-22T08:58:51;100884.72;;;10.26;56.88
64053;BME280;50299;49.524;8.536;2024-03-22T09:01:17;100876.59;;;10.21;58.27
64053;BME280;50299;49.524;8.536;2024-03-22T09:03:43;100877.66;;;10.43;57.18
64053;BME280;50299;49.524;8.536;2024-03-22T09:06:12;100884.13;;;10.69;58.02
64053;BME280;50299;49.524;8.536;2024-03-22T09:08:38;100872.13;;;10.74;57.13
64053;BME280;50299;49.524;8.536;2024-03-22T09:11:04;100876.31;;;10.71;56.87
64053;BME280;50299;49.524;8.536;2024-03-22T09:13:30;100868.94;;;10.98;55.38
64053;BME280;50299;49.524;8.536;2024-03-22T09:15:59;100858.75;;;11.33;57.28
64053;BME280;50299;49.524;8.536;2024-03-22T09:18:25;100857.13;;;11.58;58.61
64053;BME280;50299;49.524;8.536;2024-03-22T09:20:52;100857.13;;;11.67;55.51
64053;BME280;50299;49.524;8.536;2024-03-22T09:23:18;100858.28;;;11.74;54.66
64053;BME280;50299;49.524;8.536;2024-03-22T09:25:45;100856.31;;;11.83;55.09
64053;BME280;50299;49.524;8.536;2024-03-22T09:28:11;100855.34;;;12.05;56.19
64053;BME280;50299;49.524;8.536;2024-03-22T09:30:38;100858.09;;;12.05;54.53
64053;BME280;50299;49.524;8.536;2024-03-22T09:33:05;100856.25;;;12.27;55.46
64053;BME280;50299;49.524;8.536;2024-03-22T09:35:31;100847.19;;;12.47;54.94
64053;BME280;50299;49.524;8.536;2024-03-22T09:37:57;100852.06;;;12.59;53.93
64053;BME280;50299;49.524;8.536;2024-03-22T09:40:26;100843.13;;;12.83;55.42
64053;BME280;50299;49.524;8.536;2024-03-22T09:42:59;100838.19;;;13.18;56.48
64053;BME280;50299;49.524;8.536;2024-03-22T09:45:28;100840.88;;;13.27;53.06
64053;BME280;50299;49.524;8.536;2024-03-22T09:47:54;100841.09;;;13.64;52.23
64053;BME280;50299;49.524;8.536;2024-03-22T09:50:21;100833.00;;;13.92;51.57
64053;BME280;50299;49.524;8.536;2024-03-22T09:52:47;100832.91;;;14.00;50.66
64053;BME280;50299;49.524;8.536;2024-03-22T09:55:13;100829.41;;;13.91;49.13
64053;BME280;50299;49.524;8.536;2024-03-22T09:57:39;100826.63;;;13.91;50.33
64053;BME280;50299;49.524;8.536;2024-03-22T10:00:07;100825.53;;;14.17;49.68
64053;BME280;50299;49.524;8.536;2024-03-22T10:02:34;100819.72;;;14.10;48.77
64053;BME280;50299;49.524;8.536;2024-03-22T10:04:59;100813.38;;;14.21;48.13
64053;BME280;50299;49.524;8.536;2024-03-22T10:07:25;100817.38;;;14.45;50.46
64053;BME280;50299;49.524;8.536;2024-03-22T10:09:51;100810.63;;;14.83;48.17
64053;BME280;50299;49.524;8.536;2024-03-22T10:12:17;100814.09;;;15.16;49.34
64053;BME280;50299;49.524;8.536;2024-03-22T10:14:43;100812.09;;;15.04;45.90
64053;BME280;50299;49.524;8.536;2024-03-22T10:17:09;100806.88;;;15.27;45.85
64053;BME280;50299;49.524;8.536;2024-03-22T10:19:35;100799.03;;;15.45;49.08
64053;BME280;50299;49.524;8.536;2024-03-22T10:22:02;100805.66;;;15.69;49.52
64053;BME280;50299;49.524;8.536;2024-03-22T10:24:30;100798.31;;;15.76;45.35
64053;BME280;50299;49.524;8.536;2024-03-22T10:26:57;100795.59;;;15.64;45.65
64053;BME280;50299;49.524;8.536;2024-03-22T10:29:23;100791.69;;;15.53;44.68
64053;BME280;50299;49.524;8.536;2024-03-22T10:31:51;100783.53;;;15.60;46.82
64053;BME280;50299;49.524;8.536;2024-03-22T10:34:18;100781.91;;;15.59;44.63
64053;BME280;50299;49.524;8.536;2024-03-22T10:36:44;100774.53;;;15.67;46.42
64053;BME280;50299;49.524;8.536;2024-03-22T10:39:10;100783.97;;;15.62;46.08
64053;BME280;50299;49.524;8.536;2024-03-22T10:41:38;100773.72;;;15.66;46.33
64053;BME280;50299;49.524;8.536;2024-03-22T10:44:04;100768.22;;;15.54;44.85
64053;BME280;50299;49.524;8.536;2024-03-22T10:46:30;100763.66;;;15.34;44.26
64053;BME280;50299;49.524;8.536;2024-03-22T10:49:02;100763.50;;;15.42;45.31
64053;BME280;50299;49.524;8.536;2024-03-22T10:51:30;100754.59;;;15.37;46.10
64053;BME280;50299;49.524;8.536;2024-03-22T10:53:57;100758.78;;;15.43;46.20
64053;BME280;50299;49.524;8.536;2024-03-22T10:56:24;100749.75;;;15.34;45.06
64053;BME280;50299;49.524;8.536;2024-03-22T10:58:51;100749.94;;;15.41;45.99
64053;BME280;50299;49.524;8.536;2024-03-22T11:01:26;100744.38;;;15.41;45.86
64053;BME280;50299;49.524;8.536;2024-03-22T11:04:06;100740.66;;;15.65;46.40
64053;BME280;50299;49.524;8.536;2024-03-22T11:06:40;100730.53;;;15.72;45.74
64053;BME280;50299;49.524;8.536;2024-03-22T11:09:07;100721.88;;;15.77;46.93
64053;BME280;50299;49.524;8.536;2024-03-22T11:11:35;100718.88;;;15.98;48.42
64053;BME280;50299;49.524;8.536;2024-03-22T11:14:03;100712.81;;;15.81;44.78
64053;BME280;50299;49.524;8.536;2024-03-22T11:16:30;100712.81;;;15.81;44.42
64053;BME280;50299;49.524;8.536;2024-03-22T11:18:55;100707.34;;;16.00;44.90
64053;BME280;50299;49.524;8.536;2024-03-22T11:21:21;100699.72;;;15.97;43.65
64053;BME280;50299;49.524;8.536;2024-03-22T11:23:47;100694.31;;;16.04;45.63
64053;BME280;50299;49.524;8.536;2024-03-22T11:26:12;100694.47;;;16.11;45.74
64053;BME280;50299;49.524;8.536;2024-03-22T11:28:42;100691.88;;;16.18;47.08
64053;BME280;50299;49.524;8.536;2024-03-22T11:31:08;100681.16;;;16.20;45.21
64053;BME280;50299;49.524;8.536;2024-03-22T11:33:33;100679.22;;;16.05;44.63
64053;BME280;50299;49.524;8.536;2024-03-22T11:36:01;100682.03;;;16.24;45.56
64053;BME280;50299;49.524;8.536;2024-03-22T11:38:27;100670.22;;;16.47;44.63
64053;BME280;50299;49.524;8.536;2024-03-22T11:40:53;100666.66;;;16.66;43.97
64053;BME280;50299;49.524;8.536;2024-03-22T11:43:19;100662.22;;;16.81;43.22
64053;BME280;50299;49.524;8.536;2024-03-22T11:45:45;100656.31;;;16.86;41.67
64053;BME280;50299;49.524;8.536;2024-03-22T11:48:11;100650.47;;;16.56;42.37
64053;BME280;50299;49.524;8.536;2024-03-22T11:50:40;100653.78;;;16.42;43.66
64053;BME280;50299;49.524;8.536;2024-03-22T11:53:06;100648.94;;;16.58;44.16
64053;BME280;50299;49.524;8.536;2024-03-22T11:55:31;100638.56;;;16.74;41.46
64053;BME280;50299;49.524;8.536;2024-03-22T11:58:00;100640.31;;;17.02;41.71
64053;BME280;50299;49.524;8.536;2024-03-22T12:00:25;100638.44;;;17.29;41.16
64053;BME280;50299;49.524;8.536;2024-03-22T12:02:52;100642.78;;;17.69;41.50
64053;BME280;50299;49.524;8.536;2024-03-22T12:05:19;100623.69;;;17.51;39.41
64053;BME280;50299;49.524;8.536;2024-03-22T12:07:45;100624.09;;;17.31;39.75
64053;BME280;50299;49.524;8.536;2024-03-22T12:10:11;100618.00;;;17.44;40.49
64053;BME280;50299;49.524;8.536;2024-03-22T12:12:36;100617.38;;;17.55;39.64
64053;BME280;50299;49.524;8.536;2024-03-22T12:15:03;100602.91;;;17.30;39.87
64053;BME280;50299;49.524;8.536;2024-03-22T12:17:29;100605.59;;;17.68;39.61
64053;BME280;50299;49.524;8.536;2024-03-22T12:19:55;100604.38;;;17.92;40.42
64053;BME280;50299;49.524;8.536;2024-03-22T12:22:21;100603.59;;;17.92;39.74
64053;BME280;50299;49.524;8.536;2024-03-22T12:24:50;100592.66;;;17.83;41.36
64053;BME280;50299;49.524;8.536;2024-03-22T12:27:16;100596.69;;;17.59;39.54
64053;BME280;50299;49.524;8.536;2024-03-22T12:29:41;100585.81;;;17.54;40.19
64053;BME280;50299;49.524;8.536;2024-03-22T12:32:07;100585.28;;;17.71;40.82
64053;BME280;50299;49.524;8.536;2024-03-22T12:34:33;100582.56;;;17.75;40.20
64053;BME280;50299;49.524;8.536;2024-03-22T12:36:59;100584.66;;;17.82;38.62
64053;BME280;50299;49.524;8.536;2024-03-22T12:39:25;100575.75;;;17.49;38.70
64053;BME280;50299;49.524;8.536;2024-03-22T12:41:51;100575.56;;;17.62;40.30
64053;BME280;50299;49.524;8.536;2024-03-22T12:44:16;100575.69;;;17.95;40.90
64053;BME280;50299;49.524;8.536;2024-03-22T12:46:42;100562.13;;;18.24;42.07
64053;BME280;50299;49.524;8.536;2024-03-22T12:49:10;100573.31;;;18.54;43.29
64053;BME280;50299;49.524;8.536;2024-03-22T12:51:36;100564.06;;;18.84;43.11